Club Med II — FNIR — position and weather

sailwx.info

Track history (hours):
 
Tides and Currents Weather Stations Pressure Air Temp Water Temp Dewpoint Dewpoint Depression Visibility Wind Speed Wind Dir Waves Ship Positions

Club Med II

Operator: V.Ships Leisure S.A.M

Last reported at 2018-Dec-09 11:23 UTC. Time now 2018-Dec-13 14:10 UTC.
Position N 14°06' W 060°60'.

Length 187 m; draft 5.3 m.

Type: Ship. MMSI: 227194000.

Date/timePositionNaut miles runAvg speedWind from/ knotsBaromVisibWave heightAir tempDewpointWater temp
2018-Dec-09 11:23N 14°06' W 060°60'3 8.5
2018-Dec-09 11:00N 14°08' W 061°02'4 8.6
2018-Dec-09 10:29N 14°11' W 061°05'4 8.4
2018-Dec-09 10:00N 14°14' W 061°08'4 8.7
2018-Dec-09 09:30N 14°17' W 061°11'  
2018-Dec-07 00:20N 16°53' W 062°33'4 9.0
2018-Dec-06 23:51N 16°56' W 062°35'3 9.0
2018-Dec-06 23:28N 16°59' W 062°37'811.4
2018-Dec-06 22:44N 17°07' W 062°40'1 0.1
2018-Dec-06 10:55N 17°09' W 062°40'3 6.7
2018-Dec-06 10:29N 17°10' W 062°42'3 6.3
2018-Dec-06 10:00N 17°12' W 062°45'4 6.3
2018-Dec-06 09:23N 17°15' W 062°48'9 6.8
2018-Dec-06 08:00N 17°21' W 062°55'3 6.6
2018-Dec-06 07:30N 17°23' W 062°58'4 6.3
2018-Dec-06 06:51N 17°26' W 063°01'3 6.3
2018-Dec-06 06:27N 17°28' W 063°03'3 6.5
2018-Dec-06 05:57N 17°30' W 063°06'3 6.8
2018-Dec-06 05:26N 17°33' W 063°07'3 7.1
2018-Dec-06 05:00N 17°36' W 063°08'4 7.0
2018-Dec-06 04:30N 17°40' W 063°07'4 7.2
2018-Dec-06 03:59N 17°43' W 063°07'10 7.2
2018-Dec-06 02:41N 17°53' W 063°06'2 3.1
2018-Dec-06 01:57N 17°54' W 063°08'2 3.3
2018-Dec-06 01:21N 17°54' W 063°10'4 5.8
2018-Dec-06 00:41N 17°57' W 063°11'1 6.0
2018-Dec-06 00:26N 17°59' W 063°11'4 6.1
2018-Dec-05 23:47N 18°03' W 063°11'2 5.9
2018-Dec-05 23:25N 18°05' W 063°11'3 6.2
2018-Dec-05 22:56N 18°08' W 063°12'6 8.8
2018-Dec-05 22:17N 18°12' W 063°07'1 0.2
2018-Dec-05 17:25N 18°12' W 063°06'0 0.0
2018-Dec-05 16:07N 18°12' W 063°06'0 0.0
2018-Dec-05 14:55N 18°12' W 063°06'3 0.7
2018-Dec-05 10:57N 18°12' W 063°09'5 6.6
2018-Dec-05 10:12N 18°12' W 063°14'2 6.3
2018-Dec-05 09:51N 18°11' W 063°17'7 4.6
2018-Dec-05 08:23N 18°05' W 063°17'7 6.9
2018-Dec-05 07:24N 18°00' W 063°12'5 7.1
2018-Dec-05 06:45N 17°57' W 063°08'3 6.8
2018-Dec-05 06:22N 17°55' W 063°06'3 5.8
2018-Dec-05 05:51N 17°54' W 063°03'2 6.4
2018-Dec-05 05:30N 17°54' W 063°01'3 6.3
2018-Dec-05 05:00N 17°54' W 062°58'4 8.1
2018-Dec-05 04:29N 17°54' W 062°53'1 2.2
2018-Dec-05 03:50N 17°54' W 062°52'0 0.0
2018-Dec-04 23:56N 17°54' W 062°52'0 0.0
2018-Dec-04 15:08N 17°54' W 062°52'0 0.1
2018-Dec-04 14:50N 17°54' W 062°52'1 0.3
2018-Dec-04 11:28N 17°55' W 062°53'3 7.3
2018-Dec-04 11:00N 17°55' W 062°56'5 7.3
2018-Dec-04 10:20N 17°56' W 063°01'2 7.4
2018-Dec-04 10:00N 17°57' W 063°04'4 7.6
2018-Dec-04 09:30N 17°58' W 063°08'5 7.7
2018-Dec-04 08:51N 17°59' W 063°13'3 7.9
2018-Dec-04 08:30N 17°59' W 063°16'4 7.8
2018-Dec-04 08:00N 18°00' W 063°20'4 7.7
2018-Dec-04 07:26N 18°01' W 063°24'4 7.7
2018-Dec-04 06:58N 18°02' W 063°28'4 7.8
2018-Dec-04 06:30N 18°02' W 063°32'5 8.1
2018-Dec-04 05:54N 18°03' W 063°37'56 8.4
2018-Dec-03 23:09N 18°14' W 064°35'311.1
2018-Dec-03 22:54N 18°15' W 064°38'410.3
2018-Dec-03 22:28N 18°20' W 064°38'5 9.9
2018-Dec-03 22:00N 18°23' W 064°35'510.6
2018-Dec-03 21:30N 18°25' W 064°30'4 4.8
2018-Dec-03 20:46N 18°27' W 064°27'0 0.0
2018-Dec-03 20:28N 18°27' W 064°27'0 0.0
2018-Dec-03 19:58N 18°27' W 064°27'0 0.0
2018-Dec-03 16:52N 18°27' W 064°27'0 0.0
2018-Dec-03 16:10N 18°27' W 064°27'0 0.0
2018-Dec-03 14:52N 18°27' W 064°27'0 0.0
2018-Dec-03 14:16N 18°27' W 064°27'0 0.0
2018-Dec-03 12:28N 18°27' W 064°27'0 0.0
2018-Dec-03 11:46N 18°27' W 064°27'0 0.7
2018-Dec-03 11:26N 18°27' W 064°27'8 9.4
2018-Dec-03 10:36N 18°21' W 064°22'412.8
2018-Dec-03 10:18N 18°19' W 064°19'291 8.7
2018-Dec-02 00:48N 14°27' W 061°17'915.5
2018-Dec-02 00:14N 14°18' W 061°14'20 1.6
2018-Dec-01 11:18N 14°05' W 060°59'3 5.0
2018-Dec-01 10:38N 14°07' W 061°02'1 4.9
2018-Dec-01 10:30N 14°07' W 061°02'2 4.8
2018-Dec-01 10:00N 14°09' W 061°03'2 4.6
2018-Dec-01 09:29N 14°11' W 061°05'2 4.7
2018-Dec-01 09:00N 14°13' W 061°06'2 4.5
2018-Dec-01 08:30N 14°15' W 061°07'2 4.6
2018-Dec-01 07:59N 14°17' W 061°08'2 4.9
2018-Dec-01 07:30N 14°20' W 061°08'2 4.7
2018-Dec-01 07:00N 14°22' W 061°09'2 4.2
2018-Dec-01 06:30N 14°24' W 061°10'12 4.1
2018-Dec-01 03:39N 14°35' W 061°08'312.1
2018-Dec-01 03:22N 14°35' W 061°05'1 0.0
2018-Nov-30 11:31N 14°35' W 061°04'1 7.1
2018-Nov-30 11:26N 14°35' W 061°05'610.9
2018-Nov-30 10:52N 14°35' W 061°11'  
Track history (hours):
 
Tides and Currents Weather Stations Pressure Air Temp Water Temp Dewpoint Dewpoint Depression Visibility Wind Speed Wind Dir Waves Ship Positions

Club Med II

Operator: V.Ships Leisure S.A.M

Last reported at 2018-Dec-09 11:23 UTC. Time now 2018-Dec-13 14:10 UTC.
Position N 14°06' W 060°60'.

Length 187 m; draft 5.3 m.

Type: Ship. MMSI: 227194000.

Date/timePositionNaut miles runAvg speedWind from/ knotsBaromVisibWave heightAir tempDewpointWater temp
2018-Dec-09 11:23N 14°06' W 060°60'3 8.5
2018-Dec-09 11:00N 14°08' W 061°02'4 8.6
2018-Dec-09 10:29N 14°11' W 061°05'4 8.4
2018-Dec-09 10:00N 14°14' W 061°08'4 8.7
2018-Dec-09 09:30N 14°17' W 061°11'  
2018-Dec-07 00:20N 16°53' W 062°33'4 9.0
2018-Dec-06 23:51N 16°56' W 062°35'3 9.0
2018-Dec-06 23:28N 16°59' W 062°37'811.4
2018-Dec-06 22:44N 17°07' W 062°40'1 0.1
2018-Dec-06 10:55N 17°09' W 062°40'3 6.7
2018-Dec-06 10:29N 17°10' W 062°42'3 6.3
2018-Dec-06 10:00N 17°12' W 062°45'4 6.3
2018-Dec-06 09:23N 17°15' W 062°48'9 6.8
2018-Dec-06 08:00N 17°21' W 062°55'3 6.6
2018-Dec-06 07:30N 17°23' W 062°58'4 6.3
2018-Dec-06 06:51N 17°26' W 063°01'3 6.3
2018-Dec-06 06:27N 17°28' W 063°03'3 6.5
2018-Dec-06 05:57N 17°30' W 063°06'3 6.8
2018-Dec-06 05:26N 17°33' W 063°07'3 7.1
2018-Dec-06 05:00N 17°36' W 063°08'4 7.0
2018-Dec-06 04:30N 17°40' W 063°07'4 7.2
2018-Dec-06 03:59N 17°43' W 063°07'10 7.2
2018-Dec-06 02:41N 17°53' W 063°06'2 3.1
2018-Dec-06 01:57N 17°54' W 063°08'2 3.3
2018-Dec-06 01:21N 17°54' W 063°10'4 5.8
2018-Dec-06 00:41N 17°57' W 063°11'1 6.0
2018-Dec-06 00:26N 17°59' W 063°11'4 6.1
2018-Dec-05 23:47N 18°03' W 063°11'2 5.9
2018-Dec-05 23:25N 18°05' W 063°11'3 6.2
2018-Dec-05 22:56N 18°08' W 063°12'6 8.8
2018-Dec-05 22:17N 18°12' W 063°07'1 0.2
2018-Dec-05 17:25N 18°12' W 063°06'0 0.0
2018-Dec-05 16:07N 18°12' W 063°06'0 0.0
2018-Dec-05 14:55N 18°12' W 063°06'3 0.7
2018-Dec-05 10:57N 18°12' W 063°09'5 6.6
2018-Dec-05 10:12N 18°12' W 063°14'2 6.3
2018-Dec-05 09:51N 18°11' W 063°17'7 4.6
2018-Dec-05 08:23N 18°05' W 063°17'7 6.9
2018-Dec-05 07:24N 18°00' W 063°12'5 7.1
2018-Dec-05 06:45N 17°57' W 063°08'3 6.8
2018-Dec-05 06:22N 17°55' W 063°06'3 5.8
2018-Dec-05 05:51N 17°54' W 063°03'2 6.4
2018-Dec-05 05:30N 17°54' W 063°01'3 6.3
2018-Dec-05 05:00N 17°54' W 062°58'4 8.1
2018-Dec-05 04:29N 17°54' W 062°53'1 2.2
2018-Dec-05 03:50N 17°54' W 062°52'0 0.0
2018-Dec-04 23:56N 17°54' W 062°52'0 0.0
2018-Dec-04 15:08N 17°54' W 062°52'0 0.1
2018-Dec-04 14:50N 17°54' W 062°52'1 0.3
2018-Dec-04 11:28N 17°55' W 062°53'3 7.3
2018-Dec-04 11:00N 17°55' W 062°56'5 7.3
2018-Dec-04 10:20N 17°56' W 063°01'2 7.4
2018-Dec-04 10:00N 17°57' W 063°04'4 7.6
2018-Dec-04 09:30N 17°58' W 063°08'5 7.7
2018-Dec-04 08:51N 17°59' W 063°13'3 7.9
2018-Dec-04 08:30N 17°59' W 063°16'4 7.8
2018-Dec-04 08:00N 18°00' W 063°20'4 7.7
2018-Dec-04 07:26N 18°01' W 063°24'4 7.7
2018-Dec-04 06:58N 18°02' W 063°28'4 7.8
2018-Dec-04 06:30N 18°02' W 063°32'5 8.1
2018-Dec-04 05:54N 18°03' W 063°37'56 8.4
2018-Dec-03 23:09N 18°14' W 064°35'311.1
2018-Dec-03 22:54N 18°15' W 064°38'410.3
2018-Dec-03 22:28N 18°20' W 064°38'5 9.9
2018-Dec-03 22:00N 18°23' W 064°35'510.6
2018-Dec-03 21:30N 18°25' W 064°30'4 4.8
2018-Dec-03 20:46N 18°27' W 064°27'0 0.0
2018-Dec-03 20:28N 18°27' W 064°27'0 0.0
2018-Dec-03 19:58N 18°27' W 064°27'0 0.0
2018-Dec-03 16:52N 18°27' W 064°27'0 0.0
2018-Dec-03 16:10N 18°27' W 064°27'0 0.0
2018-Dec-03 14:52N 18°27' W 064°27'0 0.0
2018-Dec-03 14:16N 18°27' W 064°27'0 0.0
2018-Dec-03 12:28N 18°27' W 064°27'0 0.0
2018-Dec-03 11:46N 18°27' W 064°27'0 0.7
2018-Dec-03 11:26N 18°27' W 064°27'8 9.4
2018-Dec-03 10:36N 18°21' W 064°22'412.8
2018-Dec-03 10:18N 18°19' W 064°19'291 8.7
2018-Dec-02 00:48N 14°27' W 061°17'915.5
2018-Dec-02 00:14N 14°18' W 061°14'20 1.6
2018-Dec-01 11:18N 14°05' W 060°59'3 5.0
2018-Dec-01 10:38N 14°07' W 061°02'1 4.9
2018-Dec-01 10:30N 14°07' W 061°02'2 4.8
2018-Dec-01 10:00N 14°09' W 061°03'2 4.6
2018-Dec-01 09:29N 14°11' W 061°05'2 4.7
2018-Dec-01 09:00N 14°13' W 061°06'2 4.5
2018-Dec-01 08:30N 14°15' W 061°07'2 4.6
2018-Dec-01 07:59N 14°17' W 061°08'2 4.9
2018-Dec-01 07:30N 14°20' W 061°08'2 4.7
2018-Dec-01 07:00N 14°22' W 061°09'2 4.2
2018-Dec-01 06:30N 14°24' W 061°10'12 4.1
2018-Dec-01 03:39N 14°35' W 061°08'312.1
2018-Dec-01 03:22N 14°35' W 061°05'1 0.0
2018-Nov-30 11:31N 14°35' W 061°04'1 7.1
2018-Nov-30 11:26N 14°35' W 061°05'610.9
2018-Nov-30 10:52N 14°35' W 061°11'  

Dump ship's entire track history